sensor_id;sensor_type;location;lat;lon;timestamp;pressure;altitude;pressure_sealevel;temperature;humidity
49297;BME280;35163;48.878;18.040;2023-05-20T00:01:11;98968.53;;;15.26;72.58
49297;BME280;35163;48.878;18.040;2023-05-20T00:03:40;98959.00;;;15.25;72.48
49297;BME280;35163;48.878;18.040;2023-05-20T00:06:07;98953.94;;;15.22;72.63
49297;BME280;35163;48.878;18.040;2023-05-20T00:08:34;98947.09;;;15.19;72.72
49297;BME280;35163;48.878;18.040;2023-05-20T00:11:01;98943.66;;;15.19;72.52
49297;BME280;35163;48.878;18.040;2023-05-20T00:13:27;98948.88;;;15.19;72.45
49297;BME280;35163;48.878;18.040;2023-05-20T00:15:54;98945.47;;;15.17;72.38
49297;BME280;35163;48.878;18.040;2023-05-20T00:18:21;98941.94;;;15.18;72.36
49297;BME280;35163;48.878;18.040;2023-05-20T00:20:47;98934.06;;;15.19;71.89
49297;BME280;35163;48.878;18.040;2023-05-20T00:23:14;98942.66;;;15.22;71.88
49297;BME280;35163;48.878;18.040;2023-05-20T00:25:41;98940.84;;;15.24;71.58
49297;BME280;35163;48.878;18.040;2023-05-20T00:28:07;98934.91;;;15.20;71.67
49297;BME280;35163;48.878;18.040;2023-05-20T00:30:34;98946.34;;;15.17;71.86
49297;BME280;35163;48.878;18.040;2023-05-20T00:33:03;98944.56;;;15.18;71.48
49297;BME280;35163;48.878;18.040;2023-05-20T00:35:29;98958.56;;;15.15;71.54
49297;BME280;35163;48.878;18.040;2023-05-20T00:37:56;98957.91;;;15.10;71.73
49297;BME280;35163;48.878;18.040;2023-05-20T00:40:23;98960.59;;;15.09;72.00
49297;BME280;35163;48.878;18.040;2023-05-20T00:42:50;98955.50;;;15.05;71.93
49297;BME280;35163;48.878;18.040;2023-05-20T00:45:17;98959.91;;;15.03;72.12
49297;BME280;35163;48.878;18.040;2023-05-20T00:47:44;98957.97;;;15.09;71.70
49297;BME280;35163;48.878;18.040;2023-05-20T00:50:11;98961.59;;;15.04;71.93
49297;BME280;35163;48.878;18.040;2023-05-20T00:52:38;98953.13;;;14.99;72.63
49297;BME280;35163;48.878;18.040;2023-05-20T00:55:05;98962.00;;;14.95;72.90
49297;BME280;35163;48.878;18.040;2023-05-20T00:57:31;98956.19;;;14.88;72.85
49297;BME280;35163;48.878;18.040;2023-05-20T00:59:58;98948.44;;;14.87;72.55
49297;BME280;35163;48.878;18.040;2023-05-20T01:02:25;98948.53;;;14.85;72.95
49297;BME280;35163;48.878;18.040;2023-05-20T01:04:53;98949.41;;;14.84;72.79
49297;BME280;35163;48.878;18.040;2023-05-20T01:07:22;98940.75;;;14.84;72.46
49297;BME280;35163;48.878;18.040;2023-05-20T01:09:49;98952.19;;;14.79;72.94
49297;BME280;35163;48.878;18.040;2023-05-20T01:15:09;98948.69;;;14.80;72.54
49297;BME280;35163;48.878;18.040;2023-05-20T01:17:38;98946.13;;;14.79;72.58
49297;BME280;35163;48.878;18.040;2023-05-20T01:20:07;98945.19;;;14.81;72.22
49297;BME280;35163;48.878;18.040;2023-05-20T01:22:38;98944.56;;;14.75;72.42
49297;BME280;35163;48.878;18.040;2023-05-20T01:25:12;98933.16;;;14.77;72.20
49297;BME280;35163;48.878;18.040;2023-05-20T01:27:38;98938.38;;;14.77;72.17
49297;BME280;35163;48.878;18.040;2023-05-20T01:30:07;98933.09;;;14.79;72.14
49297;BME280;35163;48.878;18.040;2023-05-20T01:32:37;98930.50;;;14.79;72.04
49297;BME280;35163;48.878;18.040;2023-05-20T01:35:06;98938.63;;;14.71;71.93
49297;BME280;35163;48.878;18.040;2023-05-20T01:37:37;98947.22;;;14.73;71.81
49297;BME280;35163;48.878;18.040;2023-05-20T01:40:06;98935.38;;;14.66;72.43
49297;BME280;35163;48.878;18.040;2023-05-20T01:42:34;98939.97;;;14.59;72.69
49297;BME280;35163;48.878;18.040;2023-05-20T01:45:02;98946.72;;;14.63;72.39
49297;BME280;35163;48.878;18.040;2023-05-20T01:47:29;98952.00;;;14.62;72.43
49297;BME280;35163;48.878;18.040;2023-05-20T01:49:56;98942.50;;;14.61;72.40
49297;BME280;35163;48.878;18.040;2023-05-20T01:52:23;98940.91;;;14.56;72.53
49297;BME280;35163;48.878;18.040;2023-05-20T01:54:50;98938.16;;;14.61;72.52
49297;BME280;35163;48.878;18.040;2023-05-20T01:57:21;98929.31;;;14.65;72.21
49297;BME280;35163;48.878;18.040;2023-05-20T01:59:48;98929.31;;;14.65;72.18
49297;BME280;35163;48.878;18.040;2023-05-20T02:02:18;98932.81;;;14.64;72.55
49297;BME280;35163;48.878;18.040;2023-05-20T02:04:47;98936.44;;;14.60;72.54
49297;BME280;35163;48.878;18.040;2023-05-20T02:07:15;98943.28;;;14.63;72.39
49297;BME280;35163;48.878;18.040;2023-05-20T02:09:42;98947.72;;;14.61;72.32
49297;BME280;35163;48.878;18.040;2023-05-20T02:12:10;98940.69;;;14.63;72.45
49297;BME280;35163;48.878;18.040;2023-05-20T02:14:46;98940.75;;;14.61;72.70
49297;BME280;35163;48.878;18.040;2023-05-20T02:17:13;98926.88;;;14.61;72.42
49297;BME280;35163;48.878;18.040;2023-05-20T02:19:45;98920.09;;;14.56;72.84
49297;BME280;35163;48.878;18.040;2023-05-20T02:22:13;98926.22;;;14.55;73.04
49297;BME280;35163;48.878;18.040;2023-05-20T02:24:39;98930.50;;;14.56;73.42
49297;BME280;35163;48.878;18.040;2023-05-20T02:27:07;98929.69;;;14.56;73.55
49297;BME280;35163;48.878;18.040;2023-05-20T02:29:33;98935.72;;;14.56;73.54
49297;BME280;35163;48.878;18.040;2023-05-20T02:32:00;98934.91;;;14.54;73.40
49297;BME280;35163;48.878;18.040;2023-05-20T02:34:27;98938.25;;;14.58;72.62
49297;BME280;35163;48.878;18.040;2023-05-20T02:36:55;98942.72;;;14.54;73.25
49297;BME280;35163;48.878;18.040;2023-05-20T02:39:22;98937.50;;;14.56;73.24
49297;BME280;35163;48.878;18.040;2023-05-20T02:41:48;98938.97;;;14.62;73.04
49297;BME280;35163;48.878;18.040;2023-05-20T02:44:18;98934.69;;;14.61;72.39
49297;BME280;35163;48.878;18.040;2023-05-20T02:46:45;98953.78;;;14.61;72.27
49297;BME280;35163;48.878;18.040;2023-05-20T02:49:12;98948.66;;;14.58;72.88
49297;BME280;35163;48.878;18.040;2023-05-20T02:51:39;98948.59;;;14.60;72.73
49297;BME280;35163;48.878;18.040;2023-05-20T02:54:06;98946.06;;;14.58;72.94
49297;BME280;35163;48.878;18.040;2023-05-20T02:56:32;98935.59;;;14.60;73.24
49297;BME280;35163;48.878;18.040;2023-05-20T02:58:59;98932.97;;;14.60;73.38
49297;BME280;35163;48.878;18.040;2023-05-20T03:01:26;98940.09;;;14.56;73.47
49297;BME280;35163;48.878;18.040;2023-05-20T03:03:54;98939.19;;;14.57;73.82
49297;BME280;35163;48.878;18.040;2023-05-20T03:06:21;98945.34;;;14.54;73.84
49297;BME280;35163;48.878;18.040;2023-05-20T03:08:48;98936.44;;;14.60;73.53
49297;BME280;35163;48.878;18.040;2023-05-20T03:11:14;98926.88;;;14.61;73.93
49297;BME280;35163;48.878;18.040;2023-05-20T03:13:41;98925.19;;;14.60;73.74
49297;BME280;35163;48.878;18.040;2023-05-20T03:16:08;98933.19;;;14.55;73.89
49297;BME280;35163;48.878;18.040;2023-05-20T03:18:35;98934.81;;;14.57;73.46
49297;BME280;35163;48.878;18.040;2023-05-20T03:21:01;98921.03;;;14.55;72.89
49297;BME280;35163;48.878;18.040;2023-05-20T03:23:31;98926.56;;;14.46;72.93
49297;BME280;35163;48.878;18.040;2023-05-20T03:25:58;98929.31;;;14.43;72.93
49297;BME280;35163;48.878;18.040;2023-05-20T03:28:24;98931.97;;;14.41;72.81
49297;BME280;35163;48.878;18.040;2023-05-20T03:30:51;98920.63;;;14.44;72.94
49297;BME280;35163;48.878;18.040;2023-05-20T03:33:18;98916.75;;;14.32;72.85
49297;BME280;35163;48.878;18.040;2023-05-20T03:35:51;98908.81;;;14.35;72.95
49297;BME280;35163;48.878;18.040;2023-05-20T03:38:18;98912.16;;;14.37;72.76
49297;BME280;35163;48.878;18.040;2023-05-20T03:40:44;98901.41;;;14.24;73.34
49297;BME280;35163;48.878;18.040;2023-05-20T03:43:13;98897.88;;;14.27;73.29
49297;BME280;35163;48.878;18.040;2023-05-20T03:45:40;98896.16;;;14.26;73.31
49297;BME280;35163;48.878;18.040;2023-05-20T03:48:07;98916.16;;;14.24;73.48
49297;BME280;35163;48.878;18.040;2023-05-20T03:50:34;98918.03;;;14.20;73.59
49297;BME280;35163;48.878;18.040;2023-05-20T03:53:01;98921.56;;;14.19;73.68
49297;BME280;35163;48.878;18.040;2023-05-20T03:55:27;98934.63;;;14.17;73.95
49297;BME280;35163;48.878;18.040;2023-05-20T03:57:54;98931.84;;;14.22;73.74
49297;BME280;35163;48.878;18.040;2023-05-20T04:00:21;98940.31;;;14.27;73.69
49297;BME280;35163;48.878;18.040;2023-05-20T04:02:48;98925.44;;;14.31;73.35
49297;BME280;35163;48.878;18.040;2023-05-20T04:05:15;98930.44;;;14.36;73.27
49297;BME280;35163;48.878;18.040;2023-05-20T04:07:41;98924.41;;;14.35;73.32
49297;BME280;35163;48.878;18.040;2023-05-20T04:10:08;98920.16;;;14.32;73.41
49297;BME280;35163;48.878;18.040;2023-05-20T04:12:35;98926.03;;;14.38;72.86
49297;BME280;35163;48.878;18.040;2023-05-20T04:15:04;98934.63;;;14.40;73.01
49297;BME280;35163;48.878;18.040;2023-05-20T04:17:31;98925.19;;;14.37;73.06
49297;BME280;35163;48.878;18.040;2023-05-20T04:20:00;98934.81;;;14.35;73.39
49297;BME280;35163;48.878;18.040;2023-05-20T04:22:29;98931.50;;;14.31;73.50
49297;BME280;35163;48.878;18.040;2023-05-20T04:24:56;98936.56;;;14.34;73.46
49297;BME280;35163;48.878;18.040;2023-05-20T04:27:24;98928.50;;;14.41;72.91
49297;BME280;35163;48.878;18.040;2023-05-20T04:29:52;98931.25;;;14.38;73.15
49297;BME280;35163;48.878;18.040;2023-05-20T04:32:20;98932.34;;;14.32;73.12
49297;BME280;35163;48.878;18.040;2023-05-20T04:34:46;98928.22;;;14.26;73.38
49297;BME280;35163;48.878;18.040;2023-05-20T04:37:14;98931.03;;;14.20;73.54
49297;BME280;35163;48.878;18.040;2023-05-20T04:39:40;98943.88;;;14.25;73.59
49297;BME280;35163;48.878;18.040;2023-05-20T04:42:16;98950.44;;;14.35;73.06
49297;BME280;35163;48.878;18.040;2023-05-20T04:44:47;98957.31;;;14.36;73.34
49297;BME280;35163;48.878;18.040;2023-05-20T04:47:14;98948.66;;;14.36;73.38
49297;BME280;35163;48.878;18.040;2023-05-20T04:49:41;98953.56;;;14.43;73.34
49297;BME280;35163;48.878;18.040;2023-05-20T04:52:08;98946.50;;;14.47;72.97
49297;BME280;35163;48.878;18.040;2023-05-20T04:54:35;98939.47;;;14.49;73.11
49297;BME280;35163;48.878;18.040;2023-05-20T04:57:02;98947.84;;;14.57;72.84
49297;BME280;35163;48.878;18.040;2023-05-20T04:59:28;98947.84;;;14.57;72.38
49297;BME280;35163;48.878;18.040;2023-05-20T05:01:55;98951.25;;;14.58;72.43
49297;BME280;35163;48.878;18.040;2023-05-20T05:04:24;98956.97;;;14.68;72.22
49297;BME280;35163;48.878;18.040;2023-05-20T05:06:51;98955.59;;;14.81;72.18
49297;BME280;35163;48.878;18.040;2023-05-20T05:09:18;98950.00;;;14.91;71.75
49297;BME280;35163;48.878;18.040;2023-05-20T05:11:44;98964.41;;;15.00;71.17
49297;BME280;35163;48.878;18.040;2023-05-20T05:14:11;98974.47;;;15.09;70.91
49297;BME280;35163;48.878;18.040;2023-05-20T05:16:38;98967.16;;;15.17;70.90
49297;BME280;35163;48.878;18.040;2023-05-20T05:19:05;98964.22;;;15.25;70.25
49297;BME280;35163;48.878;18.040;2023-05-20T05:21:31;98961.63;;;15.46;70.52
49297;BME280;35163;48.878;18.040;2023-05-20T05:23:58;98946.84;;;15.66;69.59
49297;BME280;35163;48.878;18.040;2023-05-20T05:26:25;98950.75;;;15.76;68.62
49297;BME280;35163;48.878;18.040;2023-05-20T05:28:53;98948.91;;;15.99;68.44
49297;BME280;35163;48.878;18.040;2023-05-20T05:31:20;98944.75;;;16.34;67.86
49297;BME280;35163;48.878;18.040;2023-05-20T05:33:47;98943.13;;;16.68;66.39
49297;BME280;35163;48.878;18.040;2023-05-20T05:36:14;98945.50;;;17.10;64.31
49297;BME280;35163;48.878;18.040;2023-05-20T05:38:41;98939.44;;;17.61;63.12
49297;BME280;35163;48.878;18.040;2023-05-20T05:41:09;98944.97;;;18.05;61.62
49297;BME280;35163;48.878;18.040;2023-05-20T05:43:36;98947.31;;;18.43;60.33
49297;BME280;35163;48.878;18.040;2023-05-20T05:46:02;98941.63;;;18.67;58.78
49297;BME280;35163;48.878;18.040;2023-05-20T05:48:30;98953.69;;;19.01;59.12
49297;BME280;35163;48.878;18.040;2023-05-20T05:50:57;98945.34;;;18.94;56.61
49297;BME280;35163;48.878;18.040;2023-05-20T05:53:25;98948.53;;;19.15;57.80
49297;BME280;35163;48.878;18.040;2023-05-20T05:55:54;98947.81;;;19.28;56.12
49297;BME280;35163;48.878;18.040;2023-05-20T05:58:21;98952.34;;;19.55;57.48
49297;BME280;35163;48.878;18.040;2023-05-20T06:00:50;98946.16;;;19.71;55.78
49297;BME280;35163;48.878;18.040;2023-05-20T06:03:17;98942.28;;;19.76;54.16
49297;BME280;35163;48.878;18.040;2023-05-20T06:05:44;98932.47;;;19.95;54.55
49297;BME280;35163;48.878;18.040;2023-05-20T06:08:12;98941.28;;;20.08;52.86
49297;BME280;35163;48.878;18.040;2023-05-20T06:10:39;98951.00;;;20.21;52.18
49297;BME280;35163;48.878;18.040;2023-05-20T06:13:09;98939.06;;;20.30;51.92
49297;BME280;35163;48.878;18.040;2023-05-20T06:15:39;98944.41;;;20.56;53.24
49297;BME280;35163;48.878;18.040;2023-05-20T06:18:06;98944.47;;;20.69;51.01
49297;BME280;35163;48.878;18.040;2023-05-20T06:20:32;98928.63;;;20.70;49.75
49297;BME280;35163;48.878;18.040;2023-05-20T06:23:01;98935.06;;;20.79;50.82
49297;BME280;35163;48.878;18.040;2023-05-20T06:25:28;98932.66;;;20.89;49.73
49297;BME280;35163;48.878;18.040;2023-05-20T06:27:54;98935.09;;;21.05;49.16
49297;BME280;35163;48.878;18.040;2023-05-20T06:30:23;98938.63;;;21.32;49.49
49297;BME280;35163;48.878;18.040;2023-05-20T06:32:50;98941.66;;;21.39;48.71
49297;BME280;35163;48.878;18.040;2023-05-20T06:35:17;98937.25;;;21.39;47.91
49297;BME280;35163;48.878;18.040;2023-05-20T06:37:43;98937.78;;;21.57;48.15
49297;BME280;35163;48.878;18.040;2023-05-20T06:40:11;98945.75;;;21.69;47.39
49297;BME280;35163;48.878;18.040;2023-05-20T06:42:38;98936.28;;;21.79;47.63
49297;BME280;35163;48.878;18.040;2023-05-20T06:45:05;98939.66;;;21.81;47.21
49297;BME280;35163;48.878;18.040;2023-05-20T06:47:32;98940.66;;;22.05;46.72
49297;BME280;35163;48.878;18.040;2023-05-20T06:49:58;98938.00;;;22.18;48.01
49297;BME280;35163;48.878;18.040;2023-05-20T06:52:25;98933.38;;;22.08;45.42
49297;BME280;35163;48.878;18.040;2023-05-20T06:54:51;98941.97;;;22.24;46.07
49297;BME280;35163;48.878;18.040;2023-05-20T06:57:18;98938.34;;;22.38;46.77
49297;BME280;35163;48.878;18.040;2023-05-20T06:59:47;98940.81;;;22.52;45.78
49297;BME280;35163;48.878;18.040;2023-05-20T07:02:15;98938.25;;;22.64;45.74
49297;BME280;35163;48.878;18.040;2023-05-20T07:04:42;98921.31;;;22.79;46.36
49297;BME280;35163;48.878;18.040;2023-05-20T07:07:09;98917.03;;;22.90;45.12
49297;BME280;35163;48.878;18.040;2023-05-20T07:09:38;98915.63;;;22.97;44.67
49297;BME280;35163;48.878;18.040;2023-05-20T07:12:05;98908.47;;;23.11;44.39
49297;BME280;35163;48.878;18.040;2023-05-20T07:14:35;98904.16;;;23.21;44.37
49297;BME280;35163;48.878;18.040;2023-05-20T07:17:02;98912.09;;;23.33;43.66
49297;BME280;35163;48.878;18.040;2023-05-20T07:19:29;98908.88;;;23.40;44.05
49297;BME280;35163;48.878;18.040;2023-05-20T07:21:56;98918.47;;;23.53;44.33
49297;BME280;35163;48.878;18.040;2023-05-20T07:24:23;98912.34;;;23.52;43.18
49297;BME280;35163;48.878;18.040;2023-05-20T07:26:52;98910.78;;;23.61;43.25
49297;BME280;35163;48.878;18.040;2023-05-20T07:29:19;98910.09;;;23.71;42.77
49297;BME280;35163;48.878;18.040;2023-05-20T07:31:45;98904.31;;;23.77;43.74
49297;BME280;35163;48.878;18.040;2023-05-20T07:34:12;98902.25;;;23.92;43.50
49297;BME280;35163;48.878;18.040;2023-05-20T07:36:39;98902.13;;;24.05;43.34
49297;BME280;35163;48.878;18.040;2023-05-20T07:39:06;98894.91;;;23.96;42.11
49297;BME280;35163;48.878;18.040;2023-05-20T07:41:40;98895.84;;;24.06;43.09
49297;BME280;35163;48.878;18.040;2023-05-20T07:44:07;98896.78;;;24.17;43.12
49297;BME280;35163;48.878;18.040;2023-05-20T07:46:34;98898.59;;;24.27;42.82
49297;BME280;35163;48.878;18.040;2023-05-20T07:49:01;98894.00;;;24.41;43.02
49297;BME280;35163;48.878;18.040;2023-05-20T07:51:27;98892.53;;;24.48;43.44
49297;BME280;35163;48.878;18.040;2023-05-20T07:53:57;98887.47;;;24.45;42.27
49297;BME280;35163;48.878;18.040;2023-05-20T07:56:26;98887.00;;;24.51;42.03
49297;BME280;35163;48.878;18.040;2023-05-20T07:58:56;98886.22;;;24.61;42.66
49297;BME280;35163;48.878;18.040;2023-05-20T08:01:24;98876.16;;;24.55;42.83
49297;BME280;35163;48.878;18.040;2023-05-20T08:03:52;98879.00;;;24.63;42.45
49297;BME280;35163;48.878;18.040;2023-05-20T08:06:19;98878.25;;;24.72;43.03
49297;BME280;35163;48.878;18.040;2023-05-20T08:08:46;98877.66;;;24.69;41.60
49297;BME280;35163;48.878;18.040;2023-05-20T08:11:15;98886.84;;;24.74;41.75
49297;BME280;35163;48.878;18.040;2023-05-20T08:13:42;98881.56;;;24.74;41.81
49297;BME280;35163;48.878;18.040;2023-05-20T08:16:09;98872.97;;;24.72;42.30
49297;BME280;35163;48.878;18.040;2023-05-20T08:18:35;98878.81;;;24.76;42.30
49297;BME280;35163;48.878;18.040;2023-05-20T08:21:04;98875.53;;;24.84;42.93
49297;BME280;35163;48.878;18.040;2023-05-20T08:23:35;98872.88;;;24.84;41.78
49297;BME280;35163;48.878;18.040;2023-05-20T08:26:06;98863.78;;;24.76;42.39
49297;BME280;35163;48.878;18.040;2023-05-20T08:28:33;98861.00;;;24.78;42.25
49297;BME280;35163;48.878;18.040;2023-05-20T08:31:02;98857.72;;;24.86;44.11
49297;BME280;35163;48.878;18.040;2023-05-20T08:33:30;98857.59;;;24.87;42.21
49297;BME280;35163;48.878;18.040;2023-05-20T08:35:57;98860.50;;;24.84;42.90
49297;BME280;35163;48.878;18.040;2023-05-20T08:38:24;98853.25;;;24.86;42.89
49297;BME280;35163;48.878;18.040;2023-05-20T08:40:54;98855.22;;;24.84;42.87
49297;BME280;35163;48.878;18.040;2023-05-20T08:43:22;98847.53;;;24.81;42.64
49297;BME280;35163;48.878;18.040;2023-05-20T08:45:49;98848.25;;;24.83;43.22
49297;BME280;35163;48.878;18.040;2023-05-20T08:48:22;98846.56;;;24.82;42.21
49297;BME280;35163;48.878;18.040;2023-05-20T08:50:50;98843.78;;;24.84;42.78
49297;BME280;35163;48.878;18.040;2023-05-20T08:53:21;98849.09;;;24.84;42.15
49297;BME280;35163;48.878;18.040;2023-05-20T08:55:52;98839.53;;;24.71;42.13
49297;BME280;35163;48.878;18.040;2023-05-20T08:58:21;98843.16;;;24.70;42.62
49297;BME280;35163;48.878;18.040;2023-05-20T09:00:49;98845.81;;;24.70;42.61
49297;BME280;35163;48.878;18.040;2023-05-20T09:03:16;98834.84;;;24.75;42.52
49297;BME280;35163;48.878;18.040;2023-05-20T09:05:46;98840.97;;;24.75;43.53
49297;BME280;35163;48.878;18.040;2023-05-20T09:08:13;98831.09;;;24.78;43.14
49297;BME280;35163;48.878;18.040;2023-05-20T09:10:43;98834.31;;;24.81;43.22
49297;BME280;35163;48.878;18.040;2023-05-20T09:13:12;98832.97;;;24.87;43.55
49297;BME280;35163;48.878;18.040;2023-05-20T09:15:39;98831.03;;;24.89;43.93
49297;BME280;35163;48.878;18.040;2023-05-20T09:18:06;98821.06;;;24.93;43.29
49297;BME280;35163;48.878;18.040;2023-05-20T09:20:35;98831.38;;;24.96;43.44
49297;BME280;35163;48.878;18.040;2023-05-20T09:23:05;98826.94;;;24.96;43.03
49297;BME280;35163;48.878;18.040;2023-05-20T09:25:32;98825.22;;;24.95;42.56
49297;BME280;35163;48.878;18.040;2023-05-20T09:28:00;98822.31;;;24.98;43.09
49297;BME280;35163;48.878;18.040;2023-05-20T09:30:31;98830.97;;;25.00;42.28
49297;BME280;35163;48.878;18.040;2023-05-20T09:32:59;98829.16;;;25.01;41.87
49297;BME280;35163;48.878;18.040;2023-05-20T09:35:26;98823.59;;;25.04;41.96
49297;BME280;35163;48.878;18.040;2023-05-20T09:37:57;98820.84;;;25.06;41.75
49297;BME280;35163;48.878;18.040;2023-05-20T09:40:27;98824.59;;;25.03;41.37
49297;BME280;35163;48.878;18.040;2023-05-20T09:43:07;98817.09;;;25.08;42.78
49297;BME280;35163;48.878;18.040;2023-05-20T09:45:34;98811.28;;;25.15;43.65
49297;BME280;35163;48.878;18.040;2023-05-20T09:48:02;98817.84;;;25.20;42.80
49297;BME280;35163;48.878;18.040;2023-05-20T09:50:34;98814.94;;;25.23;42.88
49297;BME280;35163;48.878;18.040;2023-05-20T09:53:03;98812.00;;;25.27;43.25
49297;BME280;35163;48.878;18.040;2023-05-20T09:55:30;98805.50;;;25.31;44.35
49297;BME280;35163;48.878;18.040;2023-05-20T09:58:01;98806.75;;;25.36;44.26
49297;BME280;35163;48.878;18.040;2023-05-20T10:00:28;98812.75;;;25.39;42.33
49297;BME280;35163;48.878;18.040;2023-05-20T10:02:55;98809.00;;;25.41;42.28
49297;BME280;35163;48.878;18.040;2023-05-20T10:05:42;98806.91;;;25.45;41.20
49297;BME280;35163;48.878;18.040;2023-05-20T10:09:00;98806.53;;;25.50;43.18
49297;BME280;35163;48.878;18.040;2023-05-20T10:13:47;98799.00;;;25.55;41.57
49297;BME280;35163;48.878;18.040;2023-05-20T10:19:30;98797.47;;;25.62;42.95
49297;BME280;35163;48.878;18.040;2023-05-20T10:22:09;98787.88;;;25.61;43.22
49297;BME280;35163;48.878;18.040;2023-05-20T10:24:38;98791.22;;;25.63;43.07
49297;BME280;35163;48.878;18.040;2023-05-20T10:27:12;98783.28;;;25.63;43.39
49297;BME280;35163;48.878;18.040;2023-05-20T10:29:44;98778.84;;;25.64;41.51
49297;BME280;35163;48.878;18.040;2023-05-20T10:32:21;98785.69;;;25.66;42.26
49297;BME280;35163;48.878;18.040;2023-05-20T10:34:49;98778.72;;;25.65;40.52
49297;BME280;35163;48.878;18.040;2023-05-20T10:37:42;98775.94;;;25.67;39.70
49297;BME280;35163;48.878;18.040;2023-05-20T10:40:15;98783.75;;;25.68;42.14
49297;BME280;35163;48.878;18.040;2023-05-20T10:42:43;98767.84;;;25.68;42.62
49297;BME280;35163;48.878;18.040;2023-05-20T10:45:11;98775.66;;;25.70;42.39
49297;BME280;35163;48.878;18.040;2023-05-20T10:47:52;98770.09;;;25.73;41.67
49297;BME280;35163;48.878;18.040;2023-05-20T10:50:46;98763.66;;;25.76;42.58
49297;BME280;35163;48.878;18.040;2023-05-20T10:53:13;98760.91;;;25.77;42.09
49297;BME280;35163;48.878;18.040;2023-05-20T10:55:58;98751.97;;;25.78;43.35
49297;BME280;35163;48.878;18.040;2023-05-20T10:58:25;98754.34;;;25.81;42.74
49297;BME280;35163;48.878;18.040;2023-05-20T11:00:54;98754.34;;;25.81;43.46
49297;BME280;35163;48.878;18.040;2023-05-20T11:03:21;98754.34;;;25.81;40.25
49297;BME280;35163;48.878;18.040;2023-05-20T11:05:49;98738.75;;;25.78;39.30
49297;BME280;35163;48.878;18.040;2023-05-20T11:08:16;98738.31;;;25.83;40.82
49297;BME280;35163;48.878;18.040;2023-05-20T11:10:57;98738.31;;;25.93;41.54
49297;BME280;35163;48.878;18.040;2023-05-20T11:13:24;98734.97;;;26.01;40.18
49297;BME280;35163;48.878;18.040;2023-05-20T11:15:52;98729.66;;;26.11;39.78
49297;BME280;35163;48.878;18.040;2023-05-20T11:18:18;98726.19;;;26.20;40.37
49297;BME280;35163;48.878;18.040;2023-05-20T11:20:46;98715.69;;;26.28;41.16
49297;BME280;35163;48.878;18.040;2023-05-20T11:23:13;98720.00;;;26.39;40.86
49297;BME280;35163;48.878;18.040;2023-05-20T11:25:40;98711.78;;;26.42;40.41
49297;BME280;35163;48.878;18.040;2023-05-20T11:28:11;98711.91;;;26.51;40.65
49297;BME280;35163;48.878;18.040;2023-05-20T11:30:44;98711.31;;;26.57;40.28
49297;BME280;35163;48.878;18.040;2023-05-20T11:33:12;98701.41;;;26.59;38.26
49297;BME280;35163;48.878;18.040;2023-05-20T11:35:51;98697.47;;;26.63;39.71
49297;BME280;35163;48.878;18.040;2023-05-20T11:38:20;98699.72;;;26.68;39.62
49297;BME280;35163;48.878;18.040;2023-05-20T11:40:53;98700.09;;;26.73;39.73
49297;BME280;35163;48.878;18.040;2023-05-20T11:43:22;98696.31;;;26.76;39.01
49297;BME280;35163;48.878;18.040;2023-05-20T11:45:56;98701.31;;;26.79;39.51
49297;BME280;35163;48.878;18.040;2023-05-20T11:48:25;98701.06;;;26.82;38.80
49297;BME280;35163;48.878;18.040;2023-05-20T11:50:54;98694.75;;;26.83;37.91
49297;BME280;35163;48.878;18.040;2023-05-20T11:53:23;98687.50;;;26.85;38.38
49297;BME280;35163;48.878;18.040;2023-05-20T11:55:55;98694.31;;;26.88;38.37
49297;BME280;35163;48.878;18.040;2023-05-20T11:58:23;98694.16;;;26.89;37.90
49297;BME280;35163;48.878;18.040;2023-05-20T12:00:50;98697.34;;;26.93;38.00
49297;BME280;35163;48.878;18.040;2023-05-20T12:03:30;98696.66;;;26.91;37.09
49297;BME280;35163;48.878;18.040;2023-05-20T12:06:00;98689.25;;;26.94;38.08
49297;BME280;35163;48.878;18.040;2023-05-20T12:08:34;98685.63;;;26.96;37.57
49297;BME280;35163;48.878;18.040;2023-05-20T12:11:01;98687.25;;;27.07;39.02
49297;BME280;35163;48.878;18.040;2023-05-20T12:13:28;98690.28;;;27.12;37.66
49297;BME280;35163;48.878;18.040;2023-05-20T12:15:54;98696.84;;;27.17;37.52
49297;BME280;35163;48.878;18.040;2023-05-20T12:18:24;98700.03;;;27.21;36.45
49297;BME280;35163;48.878;18.040;2023-05-20T12:20:51;98696.06;;;27.25;35.83
49297;BME280;35163;48.878;18.040;2023-05-20T12:23:17;98694.66;;;27.31;35.81
49297;BME280;35163;48.878;18.040;2023-05-20T12:25:44;98691.31;;;27.29;36.04
49297;BME280;35163;48.878;18.040;2023-05-20T12:28:12;98690.03;;;27.33;35.22
49297;BME280;35163;48.878;18.040;2023-05-20T12:30:39;98689.03;;;27.34;35.59
49297;BME280;35163;48.878;18.040;2023-05-20T12:33:06;98689.03;;;27.34;35.00
49297;BME280;35163;48.878;18.040;2023-05-20T12:35:38;98686.78;;;27.39;36.60
49297;BME280;35163;48.878;18.040;2023-05-20T12:38:06;98682.31;;;27.40;35.28
49297;BME280;35163;48.878;18.040;2023-05-20T12:40:33;98674.56;;;27.47;36.06
49297;BME280;35163;48.878;18.040;2023-05-20T12:43:02;98675.25;;;27.49;36.96
49297;BME280;35163;48.878;18.040;2023-05-20T12:45:29;98672.75;;;27.47;33.85
49297;BME280;35163;48.878;18.040;2023-05-20T12:47:59;98669.09;;;27.48;34.15
49297;BME280;35163;48.878;18.040;2023-05-20T12:50:29;98673.63;;;27.56;34.93
49297;BME280;35163;48.878;18.040;2023-05-20T12:52:56;98679.25;;;27.53;34.21
49297;BME280;35163;48.878;18.040;2023-05-20T12:55:23;98669.63;;;27.52;33.85
49297;BME280;35163;48.878;18.040;2023-05-20T12:57:50;98666.28;;;27.50;33.13
49297;BME280;35163;48.878;18.040;2023-05-20T13:00:17;98674.94;;;27.52;33.31
49297;BME280;35163;48.878;18.040;2023-05-20T13:02:43;98669.47;;;27.53;34.11
49297;BME280;35163;48.878;18.040;2023-05-20T13:05:12;98673.41;;;27.49;32.87